LIPZLIBD

Guest
Details From LIPZ - Venezia Tessera
To LIBD - Bari Palese Macchie
Flight Number -
Tags decoded
Created
Modified
Stats Distance 360 nm / 666 km
Max Altitude 0 ft / 0 m
Waypoints 7
Social Downloads 0
Likes 0
Share VATSIM

Download

Looking for another format? Having issues loading an existing format? Contact us
Advertisement - Login to hide

Notes

Requested: LIPZ BUSER UL613 RES FGG VEBOX DOGUS TOPNO LIBD Unmatched points: UL613

Route

LIPZ BUSER FGG VEBOX DOGUS TOPNO LIBD

ID Type Via Altitude (ft/m) Position (lat/lon) Dist (leg/tot) Name
O LIPZ APT - 0 / 0 45.50479 / 12.34969 - / 0 nm Venezia Tessera
BUSER FIX - 0 / 0 44.10667 / 13.64889 100 / 100 nm
FGG VOR - 0 / 0 41.42945 / 15.53134 180 / 281 nm FOGGIA VOR-DME
VEBOX FIX - 0 / 0 41.15000 / 15.52972 16 / 298 nm
DOGUS FIX - 0 / 0 41.02000 / 15.70333 11 / 309 nm
TOPNO FIX - 0 / 0 40.95167 / 16.10778 18 / 328 nm
O LIBD APT - 0 / 0 41.13787 / 16.75832 31 / 359 nm Bari Palese Macchie

Altitude Profile

Advertisement - Login to hide

Weather


0- 5 10 15 20 25 30 35+ Temperature / °C

Clouds and Precipitation
Forecast for 2019-01-20 06:00 UTC. Updated 5 hours ago

Ground ~20,000 ft ~40,000 ft Winds

LIPZ

Details ICAO LIPZ (VCE)
Name Venice Marco Polo
Region Italy
Timezone Europe/Rome (UTC+1.0)
Stats Elevation 4 ft / 1 m (AMSL)
Location 45.504800° 12.349700°
Runways 2
Magnetic Variation 3.304° E

METAR

LIPZ 200750Z 36006KT 9999 FEW070 M00/M04 Q1015 NOSIG

Decode

TAF

TAF LIPZ 200500Z 2006/2112 03007KT 9999 SCT020

Decode

Departure Runways

ID Width Length Bearing (true/mag) Surface Threshold Overrun Markings Lighting
04L 148 ft / 45 m 9,129 ft / 2,782 m 42.03° / 38.73° ASPHALT 318 ft / 97 m 0 ft / 0 m PREC-APP CENTERLINE EDGE THRESHOLD MALSR REIL-OMNI
04R 148 ft / 45 m 10,836 ft / 3,303 m 42.03° / 38.72° ASPHALT 0 ft / 0 m 0 ft / 0 m PREC-APP CENTERLINE EDGE THRESHOLD SSALR REIL-OMNI
22L 148 ft / 45 m 10,836 ft / 3,303 m 222.05° / 218.74° ASPHALT 0 ft / 0 m 0 ft / 0 m PREC-APP CENTERLINE EDGE THRESHOLD SALS REIL-OMNI
22R 148 ft / 45 m 9,129 ft / 2,782 m 222.05° / 218.74° ASPHALT 0 ft / 0 m 0 ft / 0 m PREC-APP CENTERLINE EDGE THRESHOLD SALS REIL-OMNI

LIBD

Details ICAO LIBD (BRI)
Name Bari Karol Wojtyla Airport
Region Italy
Timezone Europe/Rome (UTC+1.0)
Stats Elevation 174 ft / 53 m (AMSL)
Location 41.137900° 16.758300°
Runways 1
Magnetic Variation 3.850° E

METAR

LIBD 200750Z 20403KT 7000 NSC 05/03 Q1014 R25/010095

Decode

TAF

TAF LIBD 200500Z 2006/2106 VRB06KT 9999 SCT030= TAF LIBP 200500Z 2006/2106 VRB05KT 9999 BKN030 TEMPO 2014/2022 SHRA

Decode

Destination Runways

ID Width Length Bearing (true/mag) Surface Threshold Overrun Markings Lighting
07 148 ft / 45 m 9,260 ft / 2,823 m 69.39° / 65.54° CONCRETE 1,220 ft / 372 m 0 ft / 0 m PREC-APP CENTERLINE EDGE THRESHOLD ALSF-II REIL-OMNI
25 148 ft / 45 m 9,260 ft / 2,823 m 249.41° / 245.56° CONCRETE 0 ft / 0 m 0 ft / 0 m PREC-APP CENTERLINE EDGE THRESHOLD SALS

Approach Navaids

Runway Type Ident Frequency Range Bearing (true/mag) Slope Elevation
07 OM OM - - 69.25° / 65.40 ° - 177 ft / 54 m (AMSL)
07 LOC-ILS BAP 111.35 MHz 18 nm / 33 km 69.39° / 65.54 ° - 175 ft / 53 m (AMSL)
07 GS BAP 111.35 MHz 10 nm / 19 km 69.39° / 65.54 ° 3.32° 175 ft / 53 m (AMSL)
07 DME BAP 111.35 MHz 18 nm / 33 km - - 183 ft / 56 m (AMSL)

Popular Alternatives